Mcbride, Canada
Current Conditions -  °F | °C
As of 3:00 PM on Wednesday 22 Oct 2014 (Local Time) from CYWL Reporting Station
Scattered Clouds Scattered Clouds  
Wind Chill: 13°   Ceiling: Unl
Heat Index: 13°   Visibility: 15mi
Dew Point:   Wind: 16mph
Humidity: 47%   Direction: 100°E
Pressure: 29.52"   Gusts: 23mph
Location:  53.3°N, 120.17°W
Report Text: CYWL 222200Z 10014G20KT 15SM SCT050 13/02 A2952 RMK CU4 SLP003 DENSITY ALT 3900FT
Loading
Personal Weather Stations






























Interactive Weather Map
Tropical Storm Tracking
New forecast layout! Learn more

10-Day Weather Forecast

Advertisements
Track Severe Weather on mobile